Terminal Aerodrome Forecast
Issued by NWS

Home | Current Version | Previous Version | Text Only | Print | Product List | Glossary Off
Versions: 1 2 3 4 5 6 7 8 9 10 11 12 13 14 15 16 17 18 19 20 21 22

000
FTUS43 KABR 260500 AAC
TAFATY
TAF AMD
KATY 260506Z 2605/2624 12007KT 5SM -SN BR OVC027
      TEMPO 2606/2609 2SM -SN OVC015
     FM260900 36015KT 3SM -SN BR OVC006
     FM261200 35018G29KT 6SM -SN OVC015
     FM261800 34014G25KT P6SM OVC025=

USA.gov is the U.S. government's official web portal to all federal, state and local government web resources and services.